createdAt,value
2022-10-22T00:01:15.896Z,15.40
2022-10-22T00:03:44.181Z,15.40
2022-10-22T00:06:12.309Z,15.50
2022-10-22T00:08:40.974Z,15.50
2022-10-22T00:11:12.340Z,15.50
2022-10-22T00:13:41.030Z,15.40
2022-10-22T00:16:10.143Z,15.40
2022-10-22T00:18:39.039Z,15.40
2022-10-22T00:21:08.216Z,15.50
2022-10-22T00:23:36.617Z,15.40
2022-10-22T00:26:05.001Z,15.30
2022-10-22T00:28:34.814Z,15.30
2022-10-22T00:31:03.283Z,15.30
2022-10-22T00:33:32.030Z,15.40
2022-10-22T00:36:00.661Z,15.40
2022-10-22T00:38:28.753Z,15.30
2022-10-22T00:40:57.367Z,15.30
2022-10-22T00:43:25.713Z,15.30
2022-10-22T00:45:55.209Z,15.30
2022-10-22T00:48:27.031Z,15.30
2022-10-22T00:51:00.347Z,15.30
2022-10-22T00:53:32.646Z,15.30
2022-10-22T00:56:01.726Z,15.30
2022-10-22T00:58:32.550Z,15.40
2022-10-22T01:01:03.586Z,15.40
2022-10-22T01:03:32.657Z,15.40
2022-10-22T01:06:02.775Z,15.30
2022-10-22T01:08:48.354Z,15.30
2022-10-22T01:11:25.381Z,15.20
2022-10-22T01:14:02.570Z,15.30
2022-10-22T01:16:38.565Z,15.40
2022-10-22T01:19:26.016Z,15.30
2022-10-22T01:21:59.619Z,15.20
2022-10-22T01:24:47.148Z,15.30
2022-10-22T01:27:27.291Z,15.20
2022-10-22T01:30:00.629Z,15.20
2022-10-22T01:32:30.848Z,15.20
2022-10-22T01:35:03.438Z,15.30
2022-10-22T01:37:33.931Z,15.20
2022-10-22T01:40:03.477Z,15.20
2022-10-22T01:42:31.652Z,15.30
2022-10-22T01:45:01.156Z,15.30
2022-10-22T01:47:39.629Z,15.20
2022-10-22T01:50:24.804Z,15.30
2022-10-22T01:53:11.822Z,15.20
2022-10-22T01:55:49.669Z,15.20
2022-10-22T01:58:31.333Z,15.20
2022-10-22T02:01:06.779Z,15.10
2022-10-22T02:03:40.729Z,15.00
2022-10-22T02:06:14.717Z,15.00
2022-10-22T02:08:44.525Z,15.00
2022-10-22T02:11:14.773Z,15.00
2022-10-22T02:13:45.825Z,15.00
2022-10-22T02:16:22.686Z,15.10
2022-10-22T02:18:55.298Z,15.10
2022-10-22T02:21:23.558Z,15.10
2022-10-22T02:23:51.959Z,15.10
2022-10-22T02:26:26.381Z,15.00
2022-10-22T02:29:00.926Z,14.90
2022-10-22T02:31:33.843Z,15.00
2022-10-22T02:34:08.110Z,15.00
2022-10-22T02:36:37.917Z,15.00
2022-10-22T02:39:07.936Z,15.00
2022-10-22T02:41:36.422Z,14.90
2022-10-22T02:44:10.429Z,14.80
2022-10-22T02:46:40.485Z,14.90
2022-10-22T02:49:08.632Z,14.90
2022-10-22T02:51:37.181Z,14.90
2022-10-22T02:54:05.595Z,14.90
2022-10-22T02:56:33.795Z,14.90
2022-10-22T02:59:02.321Z,15.10
2022-10-22T03:01:30.589Z,15.10
2022-10-22T03:04:00.135Z,15.00
2022-10-22T03:06:28.792Z,15.10
2022-10-22T03:08:56.907Z,15.20
2022-10-22T03:11:25.104Z,15.20
2022-10-22T03:13:53.405Z,15.10
2022-10-22T03:16:21.537Z,15.10
2022-10-22T03:18:49.661Z,15.10
2022-10-22T03:21:27.345Z,15.10
2022-10-22T03:23:56.259Z,15.10
2022-10-22T03:26:25.812Z,15.30
2022-10-22T03:28:54.959Z,15.30
2022-10-22T03:31:23.119Z,15.20
2022-10-22T03:33:51.508Z,15.20
2022-10-22T03:36:21.119Z,15.20
2022-10-22T03:38:49.601Z,15.30
2022-10-22T03:41:17.923Z,15.30
2022-10-22T03:43:49.891Z,15.30
2022-10-22T03:46:18.379Z,15.30
2022-10-22T03:48:46.695Z,15.30
2022-10-22T03:51:15.358Z,15.40
2022-10-22T03:53:44.836Z,15.30
2022-10-22T03:56:14.441Z,15.30
2022-10-22T03:58:43.025Z,15.30
2022-10-22T04:01:12.907Z,15.30
2022-10-22T04:03:41.947Z,15.30
2022-10-22T04:06:12.240Z,15.20
2022-10-22T04:08:41.191Z,15.20
2022-10-22T04:11:11.913Z,15.20
2022-10-22T04:13:40.660Z,15.20
2022-10-22T04:16:10.153Z,15.20
2022-10-22T04:18:38.898Z,15.10
2022-10-22T04:21:08.284Z,15.10
2022-10-22T04:23:36.669Z,15.00
2022-10-22T04:26:07.104Z,15.00
2022-10-22T04:28:37.141Z,15.00
2022-10-22T04:31:10.146Z,15.00
2022-10-22T04:33:38.873Z,15.10
2022-10-22T04:36:11.778Z,15.10
2022-10-22T04:38:40.543Z,15.10
2022-10-22T04:41:13.170Z,15.20
2022-10-22T04:43:43.232Z,15.20
2022-10-22T04:46:13.003Z,15.20
2022-10-22T04:48:42.824Z,15.20
2022-10-22T04:51:14.130Z,15.10
2022-10-22T04:53:42.458Z,15.10
2022-10-22T04:56:13.133Z,15.10
2022-10-22T04:58:43.652Z,15.10
2022-10-22T05:01:14.044Z,15.10
2022-10-22T05:03:42.480Z,15.00
2022-10-22T05:08:41.946Z,15.00
2022-10-22T05:11:14.763Z,14.90
2022-10-22T05:13:44.628Z,15.00
2022-10-22T05:16:13.470Z,14.90
2022-10-22T05:18:44.326Z,15.00
2022-10-22T05:21:14.277Z,15.10
2022-10-22T05:23:42.708Z,15.10
2022-10-22T05:26:12.979Z,15.10
2022-10-22T05:28:41.816Z,15.10
2022-10-22T05:31:14.167Z,15.10
2022-10-22T05:33:43.194Z,15.10
2022-10-22T05:36:14.876Z,15.10
2022-10-22T05:38:43.103Z,15.10
2022-10-22T05:41:13.436Z,15.10
2022-10-22T05:43:42.151Z,15.20
2022-10-22T05:46:16.624Z,15.20
2022-10-22T05:48:50.713Z,15.20
2022-10-22T05:51:19.831Z,15.20
2022-10-22T05:53:52.383Z,15.10
2022-10-22T05:56:20.787Z,15.20
2022-10-22T05:58:49.251Z,15.20
2022-10-22T06:01:21.364Z,15.20
2022-10-22T06:03:50.043Z,15.30
2022-10-22T06:06:22.553Z,15.20
2022-10-22T06:08:52.877Z,15.20
2022-10-22T06:11:23.235Z,15.10
2022-10-22T06:13:51.991Z,15.20
2022-10-22T06:16:21.494Z,15.20
2022-10-22T06:18:49.693Z,15.30
2022-10-22T06:21:18.650Z,15.30
2022-10-22T06:23:46.786Z,15.30
2022-10-22T06:26:15.859Z,15.20
2022-10-22T06:28:44.447Z,15.30
2022-10-22T06:31:12.677Z,15.30
2022-10-22T06:33:43.743Z,15.30
2022-10-22T06:36:13.975Z,15.40
2022-10-22T06:38:42.469Z,15.40
2022-10-22T06:41:12.585Z,15.50
2022-10-22T06:43:41.729Z,15.50
2022-10-22T06:46:14.678Z,15.50
2022-10-22T06:48:50.899Z,15.60
2022-10-22T06:51:19.712Z,15.50
2022-10-22T06:53:48.598Z,15.40
2022-10-22T06:56:20.071Z,15.50
2022-10-22T06:58:48.970Z,15.50
2022-10-22T07:01:18.680Z,15.40
2022-10-22T07:03:48.806Z,15.40
2022-10-22T07:06:17.060Z,15.30
2022-10-22T07:08:45.498Z,15.30
2022-10-22T07:11:16.203Z,15.30
2022-10-22T07:13:44.855Z,15.30
2022-10-22T07:16:14.059Z,15.50
2022-10-22T07:18:43.089Z,15.70
2022-10-22T07:21:14.097Z,16.10
2022-10-22T07:23:42.479Z,16.70
2022-10-22T07:26:12.828Z,16.90
2022-10-22T07:28:42.366Z,16.90
2022-10-22T07:31:13.048Z,16.80
2022-10-22T07:33:42.031Z,16.60
2022-10-22T07:36:17.533Z,16.60
2022-10-22T07:38:46.477Z,16.40
2022-10-22T07:41:15.586Z,16.20
2022-10-22T07:43:44.152Z,16.20
2022-10-22T07:46:12.609Z,16.20
2022-10-22T07:48:41.014Z,16.20
2022-10-22T07:51:09.694Z,16.20
2022-10-22T07:53:39.346Z,16.30
2022-10-22T07:56:08.495Z,16.40
2022-10-22T07:58:36.782Z,16.60
2022-10-22T08:01:06.745Z,16.60
2022-10-22T08:03:36.026Z,16.70
2022-10-22T08:06:04.698Z,16.70
2022-10-22T08:08:33.569Z,16.80
2022-10-22T08:11:03.628Z,16.90
2022-10-22T08:13:31.802Z,16.90
2022-10-22T08:16:01.402Z,16.90
2022-10-22T08:18:30.573Z,17.00
2022-10-22T08:20:59.260Z,17.10
2022-10-22T08:23:28.720Z,17.00
2022-10-22T08:25:58.476Z,17.00
2022-10-22T08:28:30.032Z,17.20
2022-10-22T08:30:58.353Z,17.40
2022-10-22T08:33:26.740Z,17.80
2022-10-22T08:35:55.184Z,18.20
2022-10-22T08:38:23.700Z,18.70
2022-10-22T08:40:55.028Z,19.10
2022-10-22T08:43:48.790Z,19.60
2022-10-22T08:46:48.083Z,20.00
2022-10-22T08:49:22.722Z,20.50
2022-10-22T08:51:51.647Z,21.10
2022-10-22T08:54:27.778Z,21.50
2022-10-22T08:57:11.213Z,21.50
2022-10-22T08:59:47.965Z,21.70
2022-10-22T09:02:31.982Z,21.70
2022-10-22T09:05:11.516Z,21.40
2022-10-22T09:07:50.283Z,21.10
2022-10-22T09:10:21.119Z,20.90
2022-10-22T09:12:49.804Z,20.60
2022-10-22T09:15:21.316Z,20.50
2022-10-22T09:18:04.339Z,20.50
2022-10-22T09:20:41.268Z,20.50
2022-10-22T09:23:29.538Z,20.40
2022-10-22T09:25:58.974Z,20.40
2022-10-22T09:28:27.207Z,20.50
2022-10-22T09:33:32.919Z,20.70
2022-10-22T09:36:03.763Z,20.80
2022-10-22T09:38:33.658Z,20.90
2022-10-22T09:41:04.152Z,21.00
2022-10-22T09:43:33.680Z,21.20
2022-10-22T09:46:05.830Z,21.30
2022-10-22T09:48:38.261Z,21.20
2022-10-22T09:51:12.585Z,21.30
2022-10-22T09:53:44.871Z,21.20
2022-10-22T09:56:22.379Z,21.30
2022-10-22T09:58:52.408Z,21.40
2022-10-22T10:01:25.485Z,21.30
2022-10-22T10:03:54.586Z,20.90
2022-10-22T10:06:24.494Z,20.50
2022-10-22T10:08:52.793Z,20.60
2022-10-22T10:11:29.560Z,20.90
2022-10-22T10:14:09.281Z,21.30
2022-10-22T10:16:51.328Z,21.60
2022-10-22T10:19:42.090Z,21.90
2022-10-22T10:22:19.236Z,22.20
2022-10-22T10:25:01.359Z,22.60
2022-10-22T10:27:36.275Z,22.80
2022-10-22T10:30:10.825Z,22.90
2022-10-22T10:33:04.088Z,23.00
2022-10-22T10:35:40.537Z,23.00
2022-10-22T10:38:24.691Z,22.90
2022-10-22T10:41:01.948Z,22.90
2022-10-22T10:43:40.094Z,22.70
2022-10-22T10:48:56.770Z,22.90
2022-10-22T10:51:44.364Z,22.90
2022-10-22T10:54:28.606Z,22.70
2022-10-22T10:56:59.723Z,22.70
2022-10-22T10:59:46.923Z,23.00
2022-10-22T11:02:35.101Z,23.30
2022-10-22T11:05:23.293Z,23.70
2022-10-22T11:07:58.065Z,23.70
2022-10-22T11:10:31.436Z,23.50
2022-10-22T11:13:07.008Z,23.70
2022-10-22T11:15:36.841Z,23.70
2022-10-22T11:18:15.841Z,23.60
2022-10-22T11:20:56.518Z,23.70
2022-10-22T11:23:34.683Z,23.50
2022-10-22T11:30:37.223Z,23.50
2022-10-22T11:33:08.399Z,23.40
2022-10-22T11:35:40.105Z,23.20
